Time;durP1;ratioP1;P1;durP2;ratioP2;P2;SDS_P1;SDS_P2;PMS_P1;PMS_P2;Temp;Humidity;BMP_temperature;BMP_pressure;BME280_temperature;BME280_humidity;BME280_pressure;Samples;Min_cycle;Max_cycle;Signal;HPM_P1;HPM_P2
2023/05/11 00:01:07;;;;;;;14.95;13.18;;;12.10;99.90;;;;;;5033980;28;20041;-46
2023/05/11 00:03:33;;;;;;;14.60;13.20;;;12.10;99.90;;;;;;5034832;28;20044;-40
2023/05/11 00:05:59;;;;;;;14.70;13.20;;;12.10;99.90;;;;;;5035279;28;20041;-36
2023/05/11 00:08:25;;;;;;;14.65;13.15;;;12.10;99.90;;;;;;5034696;28;20063;-42
2023/05/11 00:10:51;;;;;;;14.38;12.98;;;12.10;99.90;;;;;;5034274;28;20049;-46
2023/05/11 00:13:17;;;;;;;13.88;11.98;;;12.10;99.90;;;;;;5034196;28;20041;-39
2023/05/11 00:15:43;;;;;;;12.30;11.18;;;12.10;99.90;;;;;;5016393;28;20099;-40
2023/05/11 00:18:09;;;;;;;13.40;12.10;;;12.10;99.90;;;;;;5034939;28;20487;-41
2023/05/11 00:20:35;;;;;;;14.13;12.68;;;12.00;99.90;;;;;;5035176;28;20052;-36
2023/05/11 00:23:01;;;;;;;13.52;12.23;;;12.00;99.90;;;;;;5016662;28;20550;-41
2023/05/11 00:25:27;;;;;;;15.43;13.88;;;11.90;99.90;;;;;;5035082;28;20099;-37
2023/05/11 00:27:52;;;;;;;14.73;13.25;;;11.90;99.90;;;;;;5034933;28;20471;-42
2023/05/11 00:30:18;;;;;;;15.32;13.75;;;11.90;99.90;;;;;;5034704;28;20045;-38
2023/05/11 00:32:44;;;;;;;16.13;14.45;;;11.90;99.90;;;;;;5034255;28;20041;-38
2023/05/11 00:35:10;;;;;;;14.25;12.85;;;11.90;99.90;;;;;;5017476;28;20139;-42
2023/05/11 00:37:37;;;;;;;15.23;13.23;;;11.90;99.90;;;;;;5021096;28;20478;-45
2023/05/11 00:40:04;;;;;;;14.65;13.23;;;11.90;99.90;;;;;;5020853;28;20521;-38
2023/05/11 00:42:30;;;;;;;15.48;13.88;;;11.90;99.90;;;;;;5037815;28;20680;-39
2023/05/11 00:44:57;;;;;;;14.32;12.95;;;11.90;99.90;;;;;;5038514;28;20179;-39
2023/05/11 00:47:22;;;;;;;16.00;14.30;;;11.90;99.90;;;;;;5038129;28;20055;-40
2023/05/11 00:49:49;;;;;;;15.57;13.90;;;12.00;99.90;;;;;;5020113;28;20376;-39
2023/05/11 00:52:15;;;;;;;14.75;13.15;;;11.90;99.90;;;;;;5037036;28;20047;-46
2023/05/11 00:54:41;;;;;;;14.73;13.20;;;11.90;99.90;;;;;;5038306;28;20354;-39
2023/05/11 00:57:07;;;;;;;16.00;13.38;;;11.90;99.90;;;;;;5038340;28;20490;-45
2023/05/11 00:59:33;;;;;;;17.80;15.25;;;11.90;99.90;;;;;;5021099;28;20391;-41
2023/05/11 01:01:59;;;;;;;15.77;14.27;;;11.90;99.90;;;;;;5019978;28;20048;-35
2023/05/11 01:04:25;;;;;;;15.57;13.32;;;11.90;99.90;;;;;;5020164;28;20057;-42
2023/05/11 01:07:12;;;;;;;15.13;13.60;;;11.90;99.90;;;;;;5020422;28;20053;-40
2023/05/11 01:10:07;;;;;;;16.08;14.52;;;11.90;99.90;;;;;;5004046;28;20056;-42
2023/05/11 01:12:35;;;;;;;16.45;14.93;;;11.80;99.90;;;;;;5024076;28;20503;-44
2023/05/11 01:15:23;;;;;;;16.27;14.60;;;11.80;99.90;;;;;;5019942;28;20533;-46
2023/05/11 01:17:56;;;;;;;15.65;13.93;;;11.80;99.90;;;;;;5038302;28;20057;-47
2023/05/11 01:20:26;;;;;;;16.70;15.02;;;11.90;99.90;;;;;;5037684;28;20049;-45
2023/05/11 01:23:26;;;;;;;15.93;14.38;;;11.90;99.90;;;;;;5036573;28;20089;-45
2023/05/11 01:26:14;;;;;;;16.45;14.73;;;11.80;99.90;;;;;;5026988;28;20041;-43
2023/05/11 01:29:09;;;;;;;15.10;13.50;;;11.80;99.90;;;;;;5020292;28;20053;-41
2023/05/11 01:31:39;;;;;;;17.38;15.45;;;11.80;99.90;;;;;;4975254;28;20198;-45
2023/05/11 01:34:11;;;;;;;16.95;15.23;;;11.80;99.90;;;;;;4972289;28;20059;-43
2023/05/11 01:36:52;;;;;;;16.95;15.15;;;11.80;99.90;;;;;;4960188;28;20055;-51
2023/05/11 01:39:24;;;;;;;19.20;17.10;;;11.80;99.90;;;;;;4975364;28;20054;-44
2023/05/11 01:41:52;;;;;;;17.23;15.43;;;11.80;99.90;;;;;;4955318;28;20129;-38
2023/05/11 01:44:19;;;;;;;18.90;17.00;;;11.80;99.90;;;;;;4969371;28;20475;-43
2023/05/11 01:46:46;;;;;;;20.70;17.13;;;11.70;99.90;;;;;;4974824;28;20050;-46
2023/05/11 01:49:13;;;;;;;20.90;17.13;;;11.70;99.90;;;;;;4956176;28;20504;-36
2023/05/11 01:51:41;;;;;;;20.92;17.40;;;11.60;99.90;;;;;;4971531;28;20042;-41
2023/05/11 01:54:08;;;;;;;22.30;17.25;;;11.70;99.90;;;;;;4969601;28;20050;-42
2023/05/11 01:56:36;;;;;;;20.23;16.77;;;11.70;99.90;;;;;;4975992;28;20436;-37
2023/05/11 01:59:03;;;;;;;19.95;16.55;;;11.70;99.90;;;;;;4975167;28;20061;-41
2023/05/11 02:01:31;;;;;;;20.40;16.13;;;11.60;99.90;;;;;;4975011;28;20062;-39
2023/05/11 02:03:59;;;;;;;23.85;17.33;;;11.70;99.90;;;;;;4974812;28;20494;-38
2023/05/11 02:06:27;;;;;;;20.88;16.40;;;11.70;99.90;;;;;;4958647;28;20177;-43
2023/05/11 02:08:55;;;;;;;24.23;17.40;;;11.70;99.90;;;;;;5015421;28;20064;-43
2023/05/11 02:11:24;;;;;;;30.20;17.27;;;11.60;99.90;;;;;;5018807;28;20076;-45
2023/05/11 02:13:51;;;;;;;21.60;16.73;;;11.60;99.90;;;;;;5036033;28;20437;-38
2023/05/11 02:16:18;;;;;;;24.42;17.17;;;11.60;99.90;;;;;;5036948;28;20041;-40
2023/05/11 02:18:44;;;;;;;25.20;17.70;;;11.60;99.90;;;;;;5018841;28;20083;-39
2023/05/11 02:21:14;;;;;;;24.23;17.65;;;11.60;99.90;;;;;;5036016;28;20049;-40
2023/05/11 02:23:40;;;;;;;20.98;16.45;;;11.60;99.90;;;;;;5036533;28;20045;-36
2023/05/11 02:26:08;;;;;;;20.30;16.27;;;11.60;99.90;;;;;;5036691;28;20574;-45
2023/05/11 02:28:34;;;;;;;20.48;16.05;;;11.60;99.90;;;;;;5036798;28;20041;-37
2023/05/11 02:31:04;;;;;;;19.77;15.95;;;11.60;99.90;;;;;;5036910;28;20041;-37
2023/05/11 02:33:42;;;;;;;20.17;17.13;;;11.60;99.90;;;;;;5018578;28;20044;-37
2023/05/11 02:36:08;;;;;;;17.63;15.68;;;11.50;99.90;;;;;;5018504;28;20764;-43
2023/05/11 02:38:37;;;;;;;17.92;15.77;;;11.50;99.90;;;;;;5016577;28;20076;-42
2023/05/11 02:41:11;;;;;;;18.17;15.95;;;11.50;99.90;;;;;;5029615;28;20140;-45
2023/05/11 02:43:44;;;;;;;21.13;17.10;;;11.50;99.90;;;;;;5036191;28;20127;-48
2023/05/11 02:46:15;;;;;;;19.83;17.30;;;11.50;99.90;;;;;;5035847;28;20053;-38
2023/05/11 02:48:46;;;;;;;21.38;17.15;;;11.50;99.90;;;;;;5035606;28;20084;-39
2023/05/11 02:51:14;;;;;;;32.17;17.90;;;11.50;99.90;;;;;;5035031;28;20053;-40
2023/05/11 02:53:41;;;;;;;18.35;16.42;;;11.40;99.90;;;;;;5035691;28;20428;-42
2023/05/11 02:56:08;;;;;;;18.25;16.30;;;11.40;99.90;;;;;;5036078;28;20048;-45
2023/05/11 02:58:34;;;;;;;27.10;17.85;;;11.50;99.90;;;;;;5035346;28;20124;-40
2023/05/11 03:01:00;;;;;;;22.17;16.90;;;11.50;99.90;;;;;;5035624;28;20128;-42
2023/05/11 03:03:26;;;;;;;22.10;17.38;;;11.50;99.90;;;;;;5035174;28;20106;-40
2023/05/11 03:05:52;;;;;;;24.58;17.25;;;11.40;99.90;;;;;;5017688;28;20041;-45
2023/05/11 03:08:18;;;;;;;21.20;17.00;;;11.40;99.90;;;;;;5035960;28;20377;-45
2023/05/11 03:10:45;;;;;;;25.80;18.30;;;11.40;99.90;;;;;;5034993;28;20049;-39
2023/05/11 03:13:11;;;;;;;19.95;15.95;;;11.50;99.90;;;;;;5017368;28;20086;-48
2023/05/11 03:15:38;;;;;;;26.60;19.75;;;11.40;99.90;;;;;;5017829;28;20083;-47
2023/05/11 03:18:05;;;;;;;23.35;16.48;;;11.50;99.90;;;;;;5017436;28;20077;-45
2023/05/11 03:20:34;;;;;;;26.48;18.40;;;11.40;99.90;;;;;;5035977;28;20127;-48
2023/05/11 03:23:00;;;;;;;32.63;18.88;;;11.40;99.90;;;;;;5035741;28;20052;-44
2023/05/11 03:25:27;;;;;;;34.15;18.70;;;11.50;99.90;;;;;;5035936;28;20053;-38
2023/05/11 03:27:54;;;;;;;43.65;18.73;;;11.40;99.90;;;;;;5035553;28;20141;-43
2023/05/11 03:30:21;;;;;;;35.08;18.38;;;11.40;99.90;;;;;;5035323;28;20049;-37
2023/05/11 03:32:46;;;;;;;45.30;17.45;;;11.40;99.90;;;;;;5033814;28;20045;-40
2023/05/11 03:35:12;;;;;;;28.85;17.50;;;11.40;99.90;;;;;;5016557;28;20064;-40
2023/05/11 03:37:38;;;;;;;25.90;16.65;;;11.40;99.90;;;;;;5035452;28;20475;-42
2023/05/11 03:40:06;;;;;;;28.85;16.20;;;11.40;99.90;;;;;;5017072;28;20486;-42
2023/05/11 03:42:34;;;;;;;29.88;16.77;;;11.40;99.90;;;;;;5034423;28;20108;-41
2023/05/11 03:45:01;;;;;;;29.90;17.02;;;11.40;99.90;;;;;;5017570;28;20098;-42
2023/05/11 03:47:28;;;;;;;21.15;15.55;;;11.40;99.90;;;;;;5035148;28;20084;-43
2023/05/11 03:49:55;;;;;;;33.10;16.60;;;11.40;99.90;;;;;;4984737;28;20072;-40
2023/05/11 03:52:21;;;;;;;21.17;16.95;;;11.40;99.90;;;;;;5034376;28;20356;-42
2023/05/11 03:54:48;;;;;;;22.77;16.90;;;11.40;99.90;;;;;;5035893;28;20051;-41
2023/05/11 03:57:14;;;;;;;35.85;16.77;;;11.40;99.90;;;;;;5035669;28;20068;-42
2023/05/11 03:59:40;;;;;;;18.80;14.30;;;11.30;99.90;;;;;;5035508;28;20221;-39
2023/05/11 04:02:07;;;;;;;32.33;14.75;;;11.40;99.90;;;;;;5034030;28;20360;-39
2023/05/11 04:04:33;;;;;;;26.13;15.07;;;11.30;99.90;;;;;;5035436;28;20140;-36
2023/05/11 04:06:59;;;;;;;24.75;16.40;;;11.30;99.90;;;;;;5035722;28;20033;-37
2023/05/11 04:09:25;;;;;;;40.17;15.63;;;11.30;99.90;;;;;;5023239;28;20048;-46
2023/05/11 04:11:51;;;;;;;30.17;15.50;;;11.30;99.90;;;;;;5037999;28;20328;-43
2023/05/11 04:14:17;;;;;;;60.95;15.88;;;11.20;99.90;;;;;;5038772;28;20045;-39
2023/05/11 04:16:45;;;;;;;24.35;13.75;;;11.20;99.90;;;;;;5038756;28;20518;-36
2023/05/11 04:19:39;;;;;;;24.52;13.48;;;11.20;99.90;;;;;;5049839;27;20487;-45
2023/05/11 04:22:05;;;;;;;15.00;12.50;;;11.20;99.90;;;;;;5028612;28;20132;-46
2023/05/11 04:24:31;;;;;;;22.67;12.25;;;11.10;99.90;;;;;;5030021;28;20044;-41
2023/05/11 04:26:57;;;;;;;30.25;13.20;;;11.10;99.90;;;;;;5016652;28;20542;-43
2023/05/11 04:29:22;;;;;;;34.15;14.65;;;11.10;99.90;;;;;;5048977;28;20155;-40
2023/05/11 04:31:48;;;;;;;18.90;13.82;;;11.10;99.90;;;;;;5048059;27;20336;-40
2023/05/11 04:34:13;;;;;;;40.53;12.93;;;11.10;99.90;;;;;;5025442;28;20046;-41
2023/05/11 04:36:39;;;;;;;35.38;13.85;;;11.10;99.90;;;;;;5044415;28;20505;-41
2023/05/11 04:39:05;;;;;;;29.95;13.43;;;11.00;99.90;;;;;;5049408;28;20037;-39
2023/05/11 04:41:31;;;;;;;32.83;13.48;;;11.10;99.90;;;;;;5040079;28;20132;-44
2023/05/11 04:43:56;;;;;;;48.75;14.30;;;11.10;99.90;;;;;;5029477;28;20041;-39
2023/05/11 04:46:22;;;;;;;51.35;13.75;;;11.00;99.90;;;;;;5047254;28;20057;-39
2023/05/11 04:48:48;;;;;;;34.67;13.45;;;11.00;99.90;;;;;;5021025;28;20054;-43
2023/05/11 04:51:14;;;;;;;27.17;13.52;;;11.00;99.90;;;;;;5046131;28;20044;-41
2023/05/11 04:53:40;;;;;;;19.13;12.60;;;11.00;99.90;;;;;;5047035;28;20487;-44
2023/05/11 04:56:05;;;;;;;23.02;13.52;;;11.10;99.90;;;;;;5049079;28;20060;-40
2023/05/11 04:58:31;;;;;;;42.22;13.25;;;11.20;99.90;;;;;;5048815;28;20048;-46
2023/05/11 05:00:57;;;;;;;25.63;12.57;;;11.30;99.90;;;;;;5048623;28;20112;-42
2023/05/11 05:03:22;;;;;;;45.47;12.30;;;11.20;99.90;;;;;;5048309;28;20074;-44
2023/05/11 05:05:48;;;;;;;36.28;11.60;;;11.20;99.90;;;;;;5049075;28;20041;-44
2023/05/11 05:08:14;;;;;;;45.33;13.05;;;11.30;99.90;;;;;;5032823;28;20041;-43
2023/05/11 05:10:39;;;;;;;43.17;13.05;;;11.30;99.90;;;;;;5045311;28;20593;-37
2023/05/11 05:13:05;;;;;;;42.28;13.25;;;11.20;99.90;;;;;;5048626;28;20041;-45
2023/05/11 05:15:31;;;;;;;38.70;14.23;;;11.20;99.90;;;;;;5048126;28;20415;-45
2023/05/11 05:17:56;;;;;;;21.02;11.35;;;11.20;99.90;;;;;;5049701;28;20550;-42
2023/05/11 05:20:22;;;;;;;37.40;12.73;;;11.20;99.90;;;;;;5047998;28;20049;-40
2023/05/11 05:22:48;;;;;;;28.48;11.82;;;11.20;99.90;;;;;;5048767;28;20426;-42
2023/05/11 05:25:13;;;;;;;18.85;11.82;;;11.10;99.90;;;;;;5047007;28;20045;-47
2023/05/11 05:27:39;;;;;;;14.45;12.20;;;11.20;99.90;;;;;;5036283;28;20045;-40
2023/05/11 05:30:05;;;;;;;16.50;11.45;;;11.30;99.90;;;;;;5039436;28;20143;-46
2023/05/11 05:32:31;;;;;;;13.85;11.15;;;11.20;99.90;;;;;;5033416;28;20498;-46
2023/05/11 05:34:57;;;;;;;14.15;11.52;;;11.30;99.90;;;;;;5007427;28;20053;-36
2023/05/11 05:37:22;;;;;;;18.80;11.43;;;11.30;99.90;;;;;;5034764;28;20044;-37
2023/05/11 05:39:48;;;;;;;11.27;10.18;;;11.30;99.90;;;;;;5035175;28;20049;-47
2023/05/11 05:42:13;;;;;;;15.57;11.27;;;11.40;99.90;;;;;;5020069;28;20646;-45
2023/05/11 05:44:39;;;;;;;14.35;11.10;;;11.50;99.90;;;;;;5018628;28;20044;-40
2023/05/11 05:47:05;;;;;;;11.35;10.23;;;11.60;99.90;;;;;;5035557;28;20041;-41
2023/05/11 05:49:31;;;;;;;11.68;10.13;;;11.70;99.90;;;;;;5035151;28;20041;-41
2023/05/11 05:51:56;;;;;;;11.63;10.45;;;11.80;99.90;;;;;;5032828;28;20045;-39
2023/05/11 05:54:22;;;;;;;10.35;9.13;;;11.80;99.90;;;;;;5034346;28;20110;-39
2023/05/11 05:56:49;;;;;;;10.88;9.63;;;11.80;99.90;;;;;;5034290;28;20064;-46
2023/05/11 05:59:14;;;;;;;13.27;10.20;;;11.90;99.90;;;;;;5031036;28;20048;-39
2023/05/11 06:01:44;;;;;;;9.82;8.38;;;11.80;99.90;;;;;;5014057;28;20467;-42
2023/05/11 06:04:12;;;;;;;12.02;9.57;;;11.80;99.90;;;;;;5013325;28;20054;-43
2023/05/11 06:06:38;;;;;;;10.85;9.75;;;11.80;99.90;;;;;;5014071;28;20045;-41
2023/05/11 06:09:04;;;;;;;10.77;9.02;;;11.80;99.90;;;;;;5012713;28;20448;-38
2023/05/11 06:11:29;;;;;;;10.32;8.73;;;11.70;99.90;;;;;;5014362;28;20473;-45
2023/05/11 06:13:55;;;;;;;12.27;9.02;;;11.80;99.90;;;;;;5013873;28;20203;-43
2023/05/11 06:16:21;;;;;;;12.32;9.57;;;11.80;99.90;;;;;;5015112;28;20045;-43
2023/05/11 06:18:47;;;;;;;10.52;9.32;;;11.90;99.90;;;;;;5032526;28;20045;-44
2023/05/11 06:21:12;;;;;;;12.70;10.43;;;11.90;99.90;;;;;;5033160;28;20158;-44
2023/05/11 06:23:38;;;;;;;10.32;9.23;;;11.90;99.90;;;;;;5032715;28;20382;-45
2023/05/11 06:26:04;;;;;;;11.35;10.10;;;11.90;99.90;;;;;;5034806;28;20406;-40
2023/05/11 06:28:29;;;;;;;9.23;8.23;;;11.90;99.90;;;;;;5034607;28;20029;-36
2023/05/11 06:30:58;;;;;;;9.10;8.20;;;11.90;99.90;;;;;;5034010;28;20101;-44
2023/05/11 06:33:24;;;;;;;9.70;8.70;;;11.90;99.90;;;;;;5023481;28;20157;-43
2023/05/11 06:35:49;;;;;;;10.05;9.00;;;11.80;99.90;;;;;;5016270;28;20078;-37
2023/05/11 06:38:15;;;;;;;9.48;8.02;;;11.90;99.90;;;;;;5033782;28;20422;-47
2023/05/11 06:40:41;;;;;;;9.10;7.70;;;11.80;99.90;;;;;;5032221;28;20232;-39
2023/05/11 06:43:07;;;;;;;10.95;9.60;;;11.80;99.90;;;;;;5013088;28;20090;-40
2023/05/11 06:45:32;;;;;;;9.45;8.45;;;11.80;99.90;;;;;;5025573;28;20386;-36
2023/05/11 06:47:58;;;;;;;10.75;9.15;;;11.80;99.90;;;;;;5034247;28;20049;-46
2023/05/11 06:50:24;;;;;;;11.85;8.93;;;11.80;99.90;;;;;;5022868;28;20502;-44
2023/05/11 06:52:50;;;;;;;8.95;7.47;;;11.80;99.90;;;;;;5031521;28;20172;-36
2023/05/11 06:55:15;;;;;;;8.90;7.47;;;11.80;99.90;;;;;;5033365;28;20055;-43
2023/05/11 06:57:41;;;;;;;8.05;6.63;;;11.80;99.90;;;;;;5030333;28;20037;-38
2023/05/11 07:00:07;;;;;;;9.35;6.68;;;11.70;99.90;;;;;;5025317;28;20045;-44
2023/05/11 07:02:33;;;;;;;7.85;6.82;;;11.70;99.90;;;;;;5019454;28;20787;-41
2023/05/11 07:04:59;;;;;;;8.30;6.80;;;11.70;99.90;;;;;;5033998;28;20041;-42
2023/05/11 07:07:24;;;;;;;8.82;6.75;;;11.80;99.90;;;;;;5022166;28;20373;-41
2023/05/11 07:09:50;;;;;;;5.90;5.30;;;11.70;99.90;;;;;;5022764;28;20049;-44
2023/05/11 07:12:16;;;;;;;8.35;6.35;;;11.70;99.90;;;;;;5028099;28;20057;-39
2023/05/11 07:14:41;;;;;;;7.38;6.57;;;11.70;99.90;;;;;;5024930;28;20060;-38
2023/05/11 07:17:07;;;;;;;6.80;6.10;;;11.70;99.90;;;;;;5033702;28;20406;-45
2023/05/11 07:19:32;;;;;;;6.40;5.07;;;11.70;99.90;;;;;;5033253;28;20425;-38
2023/05/11 07:21:59;;;;;;;5.75;4.75;;;11.60;99.90;;;;;;5032682;28;20471;-41
2023/05/11 07:24:25;;;;;;;6.38;4.80;;;11.60;99.90;;;;;;5032961;28;20044;-45
2023/05/11 07:26:51;;;;;;;5.80;4.72;;;11.50;99.90;;;;;;5033498;28;20469;-40
2023/05/11 07:29:17;;;;;;;5.07;3.95;;;11.40;99.90;;;;;;5032794;28;20124;-42
2023/05/11 07:31:42;;;;;;;5.10;4.13;;;11.40;99.90;;;;;;5032125;28;20080;-37
2023/05/11 07:34:08;;;;;;;6.85;4.78;;;11.40;99.90;;;;;;5012205;28;20507;-45
2023/05/11 07:36:34;;;;;;;6.28;4.43;;;11.40;99.90;;;;;;5010120;28;20052;-38
2023/05/11 07:39:00;;;;;;;6.15;4.55;;;11.40;99.90;;;;;;5013766;28;20468;-37
2023/05/11 07:41:26;;;;;;;6.32;4.50;;;11.40;99.90;;;;;;5012077;28;20073;-41
2023/05/11 07:43:53;;;;;;;7.13;4.75;;;11.40;99.90;;;;;;5011839;28;20562;-46
2023/05/11 07:46:18;;;;;;;6.40;4.25;;;11.40;99.90;;;;;;5013279;28;20045;-42
2023/05/11 07:48:45;;;;;;;7.32;4.22;;;11.40;99.90;;;;;;5013742;28;20382;-42
2023/05/11 07:51:10;;;;;;;5.22;3.83;;;11.40;99.90;;;;;;5011573;28;20148;-45
2023/05/11 07:53:36;;;;;;;5.28;3.85;;;11.50;99.90;;;;;;5012864;28;20125;-39
2023/05/11 07:56:02;;;;;;;6.05;4.13;;;11.40;99.90;;;;;;5012786;28;20094;-42
2023/05/11 07:58:28;;;;;;;8.63;4.72;;;11.50;99.90;;;;;;5013455;28;20105;-43
2023/05/11 08:00:56;;;;;;;5.72;3.80;;;11.40;99.90;;;;;;4994403;28;20045;-37
2023/05/11 08:03:21;;;;;;;8.15;4.57;;;11.50;99.90;;;;;;5012209;28;20552;-45
2023/05/11 08:05:47;;;;;;;7.32;4.35;;;11.50;99.90;;;;;;5011537;28;20070;-46
2023/05/11 08:08:14;;;;;;;5.55;3.90;;;11.50;99.90;;;;;;5010147;28;20072;-43
2023/05/11 08:10:40;;;;;;;10.23;4.57;;;11.50;99.90;;;;;;5012159;28;20868;-37
2023/05/11 08:13:06;;;;;;;6.18;4.00;;;11.50;99.90;;;;;;5011290;28;20184;-44
2023/05/11 08:15:32;;;;;;;5.70;3.92;;;11.60;99.90;;;;;;5012703;28;20299;-44
2023/05/11 08:17:59;;;;;;;5.35;3.50;;;11.60;99.90;;;;;;5012427;28;20509;-43
2023/05/11 08:20:25;;;;;;;5.32;3.85;;;11.60;99.90;;;;;;5012458;28;20041;-40
2023/05/11 08:22:51;;;;;;;7.85;3.80;;;11.60;99.90;;;;;;5010979;28;20045;-46
2023/05/11 08:25:16;;;;;;;9.77;4.55;;;11.60;99.90;;;;;;5011460;28;20042;-47
2023/05/11 08:27:42;;;;;;;9.13;4.05;;;11.70;99.90;;;;;;5011917;28;20469;-44
2023/05/11 08:30:08;;;;;;;7.80;4.40;;;11.70;99.90;;;;;;5011129;28;20144;-47
2023/05/11 08:32:35;;;;;;;7.70;4.75;;;11.80;99.90;;;;;;5011932;28;20045;-45
2023/05/11 08:35:03;;;;;;;6.60;4.50;;;11.80;99.90;;;;;;5009979;28;20363;-49
2023/05/11 08:37:29;;;;;;;9.43;5.53;;;11.80;99.90;;;;;;5012891;28;20444;-45
2023/05/11 08:39:55;;;;;;;10.57;5.22;;;11.80;99.90;;;;;;5011803;28;20118;-38
2023/05/11 08:42:23;;;;;;;9.25;5.70;;;11.80;99.90;;;;;;5011741;28;20547;-44
2023/05/11 08:44:54;;;;;;;10.13;5.50;;;11.80;99.90;;;;;;5029805;28;20114;-46
2023/05/11 08:47:19;;;;;;;9.70;6.80;;;11.80;99.90;;;;;;5032315;28;20124;-47
2023/05/11 08:49:46;;;;;;;10.57;6.85;;;11.90;99.90;;;;;;5051896;28;20084;-47
2023/05/11 08:52:14;;;;;;;11.77;7.25;;;11.90;99.90;;;;;;5059748;27;20045;-44
2023/05/11 08:54:40;;;;;;;14.05;8.20;;;11.90;99.90;;;;;;5014963;28;20049;-38
2023/05/11 08:57:06;;;;;;;12.02;7.47;;;12.00;99.90;;;;;;5009273;28;20088;-41
2023/05/11 08:59:33;;;;;;;11.00;7.45;;;12.20;99.90;;;;;;5008004;28;20594;-45
2023/05/11 09:01:59;;;;;;;12.45;8.13;;;12.30;99.90;;;;;;5008680;28;20068;-44
2023/05/11 09:04:26;;;;;;;11.35;7.60;;;12.40;99.90;;;;;;5009302;28;20102;-43
2023/05/11 09:06:52;;;;;;;14.02;7.75;;;12.60;99.90;;;;;;5010850;28;20043;-44
2023/05/11 09:09:18;;;;;;;14.18;9.40;;;12.60;99.90;;;;;;5011596;28;20070;-43
2023/05/11 09:11:44;;;;;;;12.73;9.25;;;12.70;99.90;;;;;;5010513;28;20037;-49
2023/05/11 09:14:11;;;;;;;16.92;11.27;;;12.70;99.90;;;;;;5011196;28;20390;-38
2023/05/11 09:16:37;;;;;;;19.83;12.13;;;12.80;99.90;;;;;;5015665;28;20064;-48
2023/05/11 09:19:04;;;;;;;16.10;10.75;;;12.90;99.90;;;;;;5011464;28;20550;-41
2023/05/11 09:21:31;;;;;;;20.48;12.75;;;13.00;99.90;;;;;;5010772;28;20395;-44
2023/05/11 09:24:00;;;;;;;20.65;11.98;;;13.00;99.90;;;;;;5010108;28;20041;-44
2023/05/11 09:26:29;;;;;;;24.67;13.98;;;13.10;99.90;;;;;;5009467;28;20513;-44
2023/05/11 09:28:57;;;;;;;20.85;13.38;;;13.20;99.90;;;;;;5011895;28;20034;-49
2023/05/11 09:31:40;;;;;;;23.80;14.65;;;13.30;99.90;;;;;;5006434;28;20339;-41
2023/05/11 09:34:17;;;;;;;21.73;13.50;;;13.50;99.90;;;;;;5006844;28;20113;-48
2023/05/11 09:36:45;;;;;;;23.13;15.02;;;13.50;99.90;;;;;;5081556;28;20077;-41
2023/05/11 09:39:11;;;;;;;20.05;13.00;;;13.60;99.90;;;;;;5088437;28;20105;-47
2023/05/11 09:41:37;;;;;;;24.25;14.98;;;13.50;99.90;;;;;;5015958;28;20041;-51
2023/05/11 09:44:04;;;;;;;22.80;14.05;;;13.60;99.90;;;;;;5026275;28;20499;-47
2023/05/11 09:46:30;;;;;;;23.08;13.82;;;13.60;99.90;;;;;;5017013;28;20380;-46
2023/05/11 09:49:00;;;;;;;19.25;12.35;;;13.60;99.90;;;;;;5010767;28;20053;-44
2023/05/11 09:51:37;;;;;;;20.10;12.98;;;13.80;99.90;;;;;;5009244;28;21324;-48
2023/05/11 09:54:23;;;;;;;16.88;11.60;;;14.00;99.90;;;;;;5012173;28;20072;-51
2023/05/11 09:56:51;;;;;;;19.50;12.00;;;14.30;99.90;;;;;;5009552;28;20057;-45
2023/05/11 09:59:36;;;;;;;19.08;13.30;;;14.30;99.90;;;;;;5072204;28;20041;-44
2023/05/11 10:02:22;;;;;;;23.13;12.27;;;14.50;99.90;;;;;;5009222;28;20041;-48
2023/05/11 10:04:49;;;;;;;20.35;13.20;;;14.60;99.90;;;;;;5009086;28;20030;-38
2023/05/11 10:07:25;;;;;;;15.48;11.80;;;14.70;99.90;;;;;;5009435;28;20121;-45
2023/05/11 10:09:52;;;;;;;16.23;11.50;;;14.70;99.90;;;;;;4994124;28;20042;-51
2023/05/11 10:12:22;;;;;;;17.70;12.05;;;14.80;99.90;;;;;;5019597;28;20038;-46
2023/05/11 10:14:51;;;;;;;15.40;11.25;;;14.80;99.90;;;;;;5010800;28;20536;-38
2023/05/11 10:17:17;;;;;;;13.80;10.45;;;14.80;99.90;;;;;;5010946;28;20037;-40
2023/05/11 10:19:44;;;;;;;12.82;10.48;;;14.80;99.90;;;;;;5012184;28;20105;-42
2023/05/11 10:22:11;;;;;;;14.30;11.38;;;14.90;99.90;;;;;;5063811;28;20042;-41
2023/05/11 10:24:38;;;;;;;13.25;10.70;;;14.80;99.90;;;;;;5011037;28;20065;-39
2023/05/11 10:27:04;;;;;;;14.82;10.73;;;14.70;99.90;;;;;;5085297;28;20493;-41
2023/05/11 10:29:31;;;;;;;14.70;12.23;;;14.80;99.90;;;;;;5090666;28;20119;-42
2023/05/11 10:31:58;;;;;;;16.02;12.07;;;14.80;99.90;;;;;;5029269;28;20560;-41
2023/05/11 10:34:26;;;;;;;14.27;11.80;;;14.80;99.90;;;;;;5034907;28;20041;-41
2023/05/11 10:36:53;;;;;;;15.00;13.15;;;14.90;99.90;;;;;;5061105;28;20048;-46
2023/05/11 10:39:18;;;;;;;17.48;14.20;;;14.90;99.90;;;;;;5011111;28;21678;-48
2023/05/11 10:42:07;;;;;;;14.32;12.45;;;15.00;99.90;;;;;;5010252;28;20046;-53
2023/05/11 10:44:51;;;;;;;14.15;12.05;;;15.10;99.90;;;;;;5010933;28;20714;-39
2023/05/11 10:47:26;;;;;;;14.30;12.70;;;15.20;99.90;;;;;;5026184;28;20042;-45
2023/05/11 10:49:55;;;;;;;16.20;13.80;;;15.30;99.90;;;;;;5009269;28;20052;-49
2023/05/11 10:52:37;;;;;;;16.05;14.35;;;15.30;99.90;;;;;;5010794;28;20345;-47
2023/05/11 10:55:09;;;;;;;17.38;13.90;;;15.40;99.90;;;;;;5009906;28;20198;-42
2023/05/11 10:58:10;;;;;;;16.13;13.88;;;15.50;99.90;;;;;;5011887;28;20138;-41
2023/05/11 11:01:10;;;;;;;16.50;14.70;;;15.50;99.90;;;;;;4948740;28;20093;-44
2023/05/11 11:03:36;;;;;;;16.15;13.10;;;15.90;99.90;;;;;;4949492;28;20051;-48
2023/05/11 11:06:02;;;;;;;13.50;11.93;;;16.10;99.90;;;;;;4936452;28;20050;-53
2023/05/11 11:08:28;;;;;;;14.70;12.93;;;16.30;99.90;;;;;;4949978;28;20043;-41
2023/05/11 11:10:55;;;;;;;14.85;13.25;;;16.40;99.90;;;;;;5017787;28;20052;-45
2023/05/11 11:13:22;;;;;;;15.30;13.50;;;16.60;99.90;;;;;;5025099;28;20152;-55
2023/05/11 11:15:56;;;;;;;18.00;14.38;;;16.80;99.90;;;;;;5002062;28;20065;-40
2023/05/11 11:18:26;;;;;;;15.48;13.35;;;16.80;99.90;;;;;;4917486;28;20051;-48
2023/05/11 11:20:57;;;;;;;16.98;13.90;;;17.00;99.90;;;;;;4932134;28;20449;-49
2023/05/11 11:23:43;;;;;;;15.02;13.43;;;17.20;99.90;;;;;;4948456;28;20073;-45
2023/05/11 11:26:11;;;;;;;15.85;14.10;;;17.10;99.90;;;;;;4947582;28;20043;-45
2023/05/11 11:28:56;;;;;;;17.50;14.75;;;17.20;99.90;;;;;;4946573;28;20053;-44
2023/05/11 11:31:29;;;;;;;15.80;12.90;;;17.20;99.90;;;;;;4953549;28;20565;-40
2023/05/11 11:33:57;;;;;;;;;;;17.20;99.90;;;;;;4948582;28;20532;-45
2023/05/11 11:36:54;;;;;;;15.88;12.70;;;17.10;99.90;;;;;;4986569;28;19939;-41
2023/05/11 11:39:27;;;;;;;15.15;13.38;;;17.10;99.90;;;;;;5013184;28;20051;-43
2023/05/11 11:42:14;;;;;;;16.17;13.30;;;17.30;99.90;;;;;;5010035;28;20046;-44
2023/05/11 11:44:41;;;;;;;16.45;14.75;;;17.40;99.90;;;;;;5012108;28;20384;-41
2023/05/11 11:47:10;;;;;;;18.60;15.27;;;17.40;99.90;;;;;;5013058;28;20403;-41
2023/05/11 11:49:37;;;;;;;18.02;16.13;;;17.40;99.90;;;;;;5012583;28;20079;-52
2023/05/11 11:52:05;;;;;;;17.45;14.98;;;17.00;99.90;;;;;;5011966;28;20052;-40
2023/05/11 11:54:39;;;;;;;16.75;15.07;;;17.00;99.90;;;;;;5012671;28;20277;-48
2023/05/11 11:57:33;;;;;;;17.90;15.07;;;16.90;99.90;;;;;;5013172;28;20114;-42
2023/05/11 12:00:09;;;;;;;16.95;15.18;;;16.90;99.90;;;;;;5012489;28;20193;-41
2023/05/11 12:02:42;;;;;;;15.50;13.90;;;16.80;99.90;;;;;;4995280;28;20526;-39
2023/05/11 12:05:17;;;;;;;16.80;14.05;;;16.90;99.90;;;;;;5025388;28;20045;-42
2023/05/11 12:07:45;;;;;;;17.20;14.82;;;16.90;99.90;;;;;;5020782;28;20061;-39
2023/05/11 12:10:16;;;;;;;16.30;14.60;;;17.00;99.90;;;;;;5011523;28;20053;-49
2023/05/11 12:12:46;;;;;;;16.38;14.65;;;17.20;99.90;;;;;;5009343;28;20037;-38
2023/05/11 12:15:25;;;;;;;17.13;15.27;;;17.20;99.90;;;;;;5011889;28;20627;-42
2023/05/11 12:17:51;;;;;;;15.13;13.38;;;17.30;99.90;;;;;;5011292;28;20128;-54
2023/05/11 12:20:18;;;;;;;15.25;13.40;;;17.30;99.90;;;;;;5011777;28;20040;-38
2023/05/11 12:22:45;;;;;;;15.90;14.30;;;17.40;99.90;;;;;;5011809;28;20407;-43
2023/05/11 12:25:13;;;;;;;15.35;13.82;;;17.50;99.90;;;;;;5010347;28;20058;-51
2023/05/11 12:27:49;;;;;;;15.38;12.85;;;17.40;99.90;;;;;;5012154;28;20058;-48
2023/05/11 12:30:26;;;;;;;14.48;11.98;;;17.60;99.90;;;;;;5009853;28;20413;-41
2023/05/11 12:32:52;;;;;;;13.30;11.88;;;17.70;99.90;;;;;;5010160;28;20232;-43
2023/05/11 12:35:26;;;;;;;12.25;10.80;;;17.70;99.90;;;;;;4998959;28;20519;-43
2023/05/11 12:37:52;;;;;;;15.40;11.48;;;17.80;99.90;;;;;;5012673;28;20117;-48